createdAt,value
2019-06-20T00:00:57.344Z,10.95
2019-06-20T00:03:29.365Z,10.05
2019-06-20T00:06:01.372Z,11.03
2019-06-20T00:08:33.512Z,10.75
2019-06-20T00:11:05.525Z,9.75
2019-06-20T00:13:37.570Z,10.00
2019-06-20T00:16:10.598Z,10.35
2019-06-20T00:18:42.702Z,10.32
2019-06-20T00:21:14.829Z,10.95
2019-06-20T00:23:46.855Z,10.72
2019-06-20T00:26:18.863Z,11.45
2019-06-20T00:28:50.959Z,11.22
2019-06-20T00:31:22.969Z,10.45
2019-06-20T00:33:54.991Z,10.15
2019-06-20T00:36:27.137Z,11.15
2019-06-20T00:38:59.180Z,10.85
2019-06-20T00:41:31.305Z,12.30
2019-06-20T00:44:03.416Z,10.58
2019-06-20T00:46:35.528Z,11.05
2019-06-20T00:49:07.660Z,10.58
2019-06-20T00:51:39.737Z,11.43
2019-06-20T00:54:11.842Z,10.15
2019-06-20T00:56:43.950Z,11.60
2019-06-20T00:59:16.096Z,10.35
2019-06-20T01:01:49.134Z,11.78
2019-06-20T01:04:21.360Z,11.22
2019-06-20T01:06:53.501Z,10.28
2019-06-20T01:09:25.640Z,11.08
2019-06-20T01:11:57.745Z,11.33
2019-06-20T01:14:29.753Z,11.78
2019-06-20T01:17:01.887Z,11.48
2019-06-20T01:19:34.008Z,11.43
2019-06-20T01:22:06.226Z,11.50
2019-06-20T01:24:38.341Z,13.03
2019-06-20T01:27:10.455Z,12.68
2019-06-20T01:29:42.559Z,11.53
2019-06-20T01:32:15.698Z,13.72
2019-06-20T01:34:47.816Z,13.35
2019-06-20T01:37:19.944Z,13.35
2019-06-20T01:39:52.069Z,14.43
2019-06-20T01:42:24.181Z,13.43
2019-06-20T01:44:56.133Z,13.85
2019-06-20T01:47:28.457Z,13.45
2019-06-20T01:50:00.585Z,13.40
2019-06-20T01:52:32.784Z,13.28
2019-06-20T01:55:05.403Z,13.22
2019-06-20T01:57:37.524Z,13.75
2019-06-20T02:00:09.589Z,14.05
2019-06-20T02:02:41.695Z,14.35
2019-06-20T02:05:13.827Z,15.30
2019-06-20T02:07:45.931Z,15.78
2019-06-20T02:10:19.017Z,15.23
2019-06-20T02:12:51.157Z,14.70
2019-06-20T02:15:23.280Z,15.63
2019-06-20T02:17:55.389Z,15.40
2019-06-20T02:20:47.935Z,14.83
2019-06-20T02:23:20.260Z,15.15
2019-06-20T02:25:52.408Z,16.12
2019-06-20T02:28:24.384Z,13.83
2019-06-20T02:30:56.504Z,15.00
2019-06-20T02:33:29.636Z,15.32
2019-06-20T02:36:01.773Z,15.10
2019-06-20T02:38:33.941Z,13.85
2019-06-20T02:41:06.076Z,13.60
2019-06-20T02:43:38.202Z,13.62
2019-06-20T02:46:10.322Z,13.45
2019-06-20T02:48:42.457Z,14.03
2019-06-20T02:51:14.904Z,13.50
2019-06-20T02:53:47.104Z,13.45
2019-06-20T02:56:19.244Z,13.80
2019-06-20T02:58:51.374Z,13.40
2019-06-20T03:01:23.478Z,12.75
2019-06-20T03:03:55.504Z,12.30
2019-06-20T03:06:27.536Z,12.25
2019-06-20T03:08:59.553Z,12.90
2019-06-20T03:11:32.437Z,12.98
2019-06-20T03:14:04.458Z,12.50
2019-06-20T03:16:36.587Z,14.85
2019-06-20T03:19:08.628Z,16.65
2019-06-20T03:21:40.845Z,15.90
2019-06-20T03:24:12.974Z,16.05
2019-06-20T03:26:45.010Z,16.57
2019-06-20T03:29:17.044Z,14.80
2019-06-20T03:31:50.161Z,13.53
2019-06-20T03:34:22.189Z,13.13
2019-06-20T03:36:54.291Z,12.60
2019-06-20T03:39:27.293Z,13.40
2019-06-20T03:41:59.302Z,13.20
2019-06-20T03:44:31.339Z,12.30
2019-06-20T03:47:03.370Z,11.57
2019-06-20T03:49:35.401Z,9.23
2019-06-20T03:52:07.426Z,7.47
2019-06-20T03:54:39.457Z,7.40
2019-06-20T03:57:11.580Z,6.95
2019-06-20T03:59:43.503Z,6.20
2019-06-20T04:02:15.456Z,5.80
2019-06-20T04:04:47.301Z,6.45
2019-06-20T04:07:19.398Z,6.65
2019-06-20T04:09:51.406Z,6.17
2019-06-20T04:12:23.928Z,5.72
2019-06-20T04:14:56.028Z,6.20
2019-06-20T04:17:28.145Z,5.95
2019-06-20T04:20:00.177Z,5.72
2019-06-20T04:22:32.287Z,5.70
2019-06-20T04:25:04.429Z,5.47
2019-06-20T04:27:36.459Z,6.20
2019-06-20T04:30:08.635Z,6.08
2019-06-20T04:32:40.617Z,5.50
2019-06-20T04:35:12.641Z,6.80
2019-06-20T04:37:44.572Z,5.78
2019-06-20T04:40:16.491Z,5.70
2019-06-20T04:42:48.404Z,6.10
2019-06-20T04:45:35.154Z,5.60
2019-06-20T04:48:01.621Z,5.62
2019-06-20T04:50:33.511Z,6.35
2019-06-20T04:53:05.427Z,6.00
2019-06-20T04:55:37.428Z,5.50
2019-06-20T04:58:09.348Z,6.28
2019-06-20T05:00:41.241Z,5.47
2019-06-20T05:03:13.243Z,6.15
2019-06-20T05:05:45.321Z,6.15
2019-06-20T05:08:17.444Z,5.90
2019-06-20T05:10:49.364Z,5.97
2019-06-20T05:13:21.397Z,6.03
2019-06-20T05:15:53.616Z,5.70
2019-06-20T05:18:27.199Z,6.00
2019-06-20T05:20:59.117Z,5.70
2019-06-20T05:23:31.181Z,5.17
2019-06-20T05:26:03.288Z,5.30
2019-06-20T05:28:35.230Z,5.80
2019-06-20T05:31:07.166Z,5.72
2019-06-20T05:33:39.113Z,5.40
2019-06-20T05:36:11.152Z,6.28
2019-06-20T05:38:43.205Z,5.67
2019-06-20T05:41:15.324Z,5.65
2019-06-20T05:43:47.361Z,5.87
2019-06-20T05:46:19.380Z,5.08
2019-06-20T05:48:51.301Z,5.47
2019-06-20T05:51:24.047Z,5.12
2019-06-20T05:53:56.090Z,4.90
2019-06-20T05:56:28.229Z,4.90
2019-06-20T05:59:00.089Z,4.95
2019-06-20T06:01:31.920Z,4.80
2019-06-20T06:04:03.759Z,4.95
2019-06-20T06:06:35.761Z,4.95
2019-06-20T06:09:07.992Z,4.67
2019-06-20T06:11:39.922Z,4.70
2019-06-20T06:14:11.825Z,4.58
2019-06-20T06:16:44.821Z,4.50
2019-06-20T06:19:16.765Z,4.55
2019-06-20T06:21:49.632Z,4.33
2019-06-20T06:24:21.590Z,4.30
2019-06-20T06:26:53.526Z,4.42
2019-06-20T06:29:25.468Z,4.45
2019-06-20T06:31:57.632Z,4.33
2019-06-20T06:34:29.538Z,4.10
2019-06-20T06:37:01.480Z,5.10
2019-06-20T06:39:33.411Z,4.55
2019-06-20T06:42:05.364Z,4.37
2019-06-20T06:44:37.296Z,4.22
2019-06-20T06:47:09.264Z,3.62
2019-06-20T06:49:41.206Z,4.33
2019-06-20T06:52:13.146Z,3.92
2019-06-20T06:54:45.048Z,3.75
2019-06-20T06:57:16.953Z,3.87
2019-06-20T06:59:48.866Z,4.00
2019-06-20T07:02:20.767Z,4.00
2019-06-20T07:04:52.718Z,3.90
2019-06-20T07:07:24.623Z,3.85
2019-06-20T07:09:56.551Z,3.47
2019-06-20T07:12:28.485Z,3.92
2019-06-20T07:15:00.454Z,3.83
2019-06-20T07:17:32.477Z,3.90
2019-06-20T07:20:06.376Z,3.67
2019-06-20T07:22:38.370Z,3.92
2019-06-20T07:25:18.688Z,3.52
2019-06-20T07:27:53.145Z,3.70
2019-06-20T07:30:28.158Z,4.05
2019-06-20T07:33:01.147Z,3.40
2019-06-20T07:35:33.051Z,3.37
2019-06-20T07:38:05.018Z,3.12
2019-06-20T07:40:37.336Z,4.05
2019-06-20T07:43:09.321Z,3.12
2019-06-20T07:45:41.253Z,3.50
2019-06-20T07:48:14.188Z,3.22
2019-06-20T07:50:46.445Z,2.75
2019-06-20T07:53:18.473Z,3.35
2019-06-20T07:55:50.559Z,3.20
2019-06-20T07:58:25.371Z,3.30
2019-06-20T08:00:57.472Z,3.35
2019-06-20T08:03:31.003Z,3.22
2019-06-20T08:06:02.961Z,3.12
2019-06-20T08:08:35.940Z,3.12
2019-06-20T08:11:07.929Z,3.30
2019-06-20T08:13:39.912Z,3.30
2019-06-20T08:16:11.896Z,2.95
2019-06-20T08:18:43.862Z,2.87
2019-06-20T08:21:15.811Z,3.20
2019-06-20T08:23:47.748Z,2.77
2019-06-20T08:26:19.694Z,3.12
2019-06-20T08:29:07.380Z,2.90
2019-06-20T08:31:25.235Z,3.17
2019-06-20T08:33:57.674Z,3.20
2019-06-20T08:36:30.912Z,2.92
2019-06-20T08:39:02.857Z,2.75
2019-06-20T08:41:36.098Z,3.15
2019-06-20T08:44:07.976Z,2.77
2019-06-20T08:46:39.885Z,3.47
2019-06-20T08:49:11.929Z,2.85
2019-06-20T08:51:43.846Z,3.12
2019-06-20T08:54:15.804Z,2.90
2019-06-20T08:56:47.738Z,2.80
2019-06-20T08:59:24.452Z,2.70
2019-06-20T09:01:56.542Z,2.80
2019-06-20T09:04:27.734Z,2.77
2019-06-20T09:07:00.604Z,2.75
2019-06-20T09:09:32.944Z,2.52
2019-06-20T09:12:05.164Z,2.75
2019-06-20T09:14:37.278Z,2.47
2019-06-20T09:17:09.239Z,2.10
2019-06-20T09:19:41.156Z,2.27
2019-06-20T09:22:13.064Z,2.20
2019-06-20T09:24:44.986Z,2.65
2019-06-20T09:27:17.099Z,2.33
2019-06-20T09:29:49.021Z,2.42
2019-06-20T09:32:21.193Z,1.98
2019-06-20T09:34:54.454Z,2.42
2019-06-20T09:37:26.554Z,2.20
2019-06-20T09:39:59.207Z,2.40
2019-06-20T09:42:32.253Z,2.27
2019-06-20T09:45:06.341Z,2.20
2019-06-20T09:47:38.284Z,2.30
2019-06-20T09:50:12.344Z,2.40
2019-06-20T09:52:44.281Z,2.02
2019-06-20T09:55:16.238Z,2.45
2019-06-20T09:57:49.223Z,2.10
2019-06-20T10:00:24.862Z,2.30
2019-06-20T10:02:57.792Z,2.35
2019-06-20T10:05:29.959Z,2.58
2019-06-20T10:08:01.935Z,2.55
2019-06-20T10:10:33.882Z,2.12
2019-06-20T10:13:05.871Z,2.02
2019-06-20T10:15:38.016Z,2.08
2019-06-20T10:18:09.936Z,2.60
2019-06-20T10:20:41.846Z,2.40
2019-06-20T10:23:13.880Z,2.30
2019-06-20T10:25:47.470Z,2.17
2019-06-20T10:28:19.413Z,2.50
2019-06-20T10:30:51.364Z,2.30
2019-06-20T10:33:23.254Z,2.10
2019-06-20T10:35:55.185Z,2.37
2019-06-20T10:38:27.160Z,2.20
2019-06-20T10:41:00.129Z,2.20
2019-06-20T10:43:32.191Z,2.15
2019-06-20T10:46:04.110Z,2.10
2019-06-20T10:48:36.037Z,2.40
2019-06-20T10:51:26.245Z,2.40
2019-06-20T10:53:58.254Z,2.10
2019-06-20T10:56:31.166Z,2.33
2019-06-20T10:59:03.289Z,2.33
2019-06-20T11:01:35.226Z,2.17
2019-06-20T11:04:07.151Z,2.35
2019-06-20T11:06:40.044Z,2.30
2019-06-20T11:09:12.613Z,2.20
2019-06-20T11:11:44.782Z,2.20
2019-06-20T11:14:16.829Z,2.30
2019-06-20T11:16:50.603Z,2.50
2019-06-20T11:19:22.508Z,2.15
2019-06-20T11:21:54.372Z,2.45
2019-06-20T11:24:26.314Z,2.52
2019-06-20T11:26:58.231Z,2.30
2019-06-20T11:29:30.169Z,2.58
2019-06-20T11:32:02.107Z,2.30
2019-06-20T11:34:34.103Z,2.20
2019-06-20T11:37:06.024Z,2.02
2019-06-20T11:39:38.915Z,2.50
2019-06-20T11:42:11.011Z,2.30
2019-06-20T11:44:43.116Z,2.33
2019-06-20T11:47:15.178Z,2.60
2019-06-20T11:49:47.108Z,2.58
2019-06-20T11:52:19.019Z,2.47
2019-06-20T11:54:50.949Z,2.22
2019-06-20T11:57:22.956Z,2.20
2019-06-20T11:59:54.975Z,2.60
2019-06-20T12:02:26.913Z,2.55
2019-06-20T12:04:58.834Z,2.37
2019-06-20T12:07:30.755Z,1.92
2019-06-20T12:10:04.467Z,2.33
2019-06-20T12:12:36.413Z,2.50
2019-06-20T12:15:09.141Z,2.42
2019-06-20T12:17:43.375Z,2.10
2019-06-20T12:20:16.621Z,1.90
2019-06-20T12:22:50.508Z,2.08
2019-06-20T12:25:23.396Z,2.30
2019-06-20T12:27:55.297Z,2.50
2019-06-20T12:30:27.140Z,2.17
2019-06-20T12:32:59.042Z,2.30
2019-06-20T12:35:30.949Z,2.30
2019-06-20T12:38:02.886Z,2.00
2019-06-20T12:40:34.781Z,2.37
2019-06-20T12:43:06.720Z,2.15
2019-06-20T12:45:40.007Z,1.90
2019-06-20T12:48:12.203Z,2.10
2019-06-20T12:50:45.089Z,2.17
2019-06-20T12:53:17.150Z,2.17
2019-06-20T12:55:50.697Z,1.95
2019-06-20T12:58:23.859Z,2.08
2019-06-20T13:00:56.179Z,2.50
2019-06-20T13:03:28.199Z,2.27
2019-06-20T13:06:00.230Z,2.00
2019-06-20T13:08:32.155Z,2.20
2019-06-20T13:11:04.090Z,2.05
2019-06-20T13:13:38.758Z,1.87
2019-06-20T13:16:10.230Z,2.12
2019-06-20T13:18:44.480Z,2.02
2019-06-20T13:21:18.954Z,2.37
2019-06-20T13:23:50.172Z,2.40
2019-06-20T13:26:22.095Z,2.20
2019-06-20T13:29:03.770Z,2.00
2019-06-20T13:31:27.564Z,2.10
2019-06-20T13:33:59.485Z,2.00
2019-06-20T13:36:31.436Z,2.33
2019-06-20T13:39:05.323Z,2.08
2019-06-20T13:41:40.786Z,2.58
2019-06-20T13:44:14.382Z,2.20
2019-06-20T13:46:46.736Z,2.37
2019-06-20T13:49:18.690Z,2.22
2019-06-20T13:51:50.626Z,2.10
2019-06-20T13:54:22.568Z,2.00
2019-06-20T13:56:54.500Z,1.87
2019-06-20T13:59:26.390Z,2.22
2019-06-20T14:02:06.658Z,2.40
2019-06-20T14:04:32.055Z,2.60
2019-06-20T14:07:03.967Z,2.08
2019-06-20T14:09:36.025Z,2.05
2019-06-20T14:12:11.357Z,2.50
2019-06-20T14:14:44.009Z,2.67
2019-06-20T14:17:15.981Z,2.10
2019-06-20T14:19:48.674Z,2.45
2019-06-20T14:22:20.690Z,2.22
2019-06-20T14:24:53.707Z,2.15
2019-06-20T14:27:25.688Z,2.25
2019-06-20T14:29:57.636Z,2.02
2019-06-20T14:32:29.589Z,1.98
2019-06-20T14:35:01.524Z,1.87
2019-06-20T14:37:33.443Z,2.50
2019-06-20T14:40:07.041Z,2.40
2019-06-20T14:42:38.957Z,2.10
2019-06-20T14:45:10.898Z,2.40
2019-06-20T14:47:43.926Z,2.08
2019-06-20T14:50:16.879Z,2.50
2019-06-20T14:52:50.002Z,2.45
2019-06-20T14:55:23.519Z,2.00
2019-06-20T14:57:55.598Z,2.25
2019-06-20T15:00:27.582Z,2.45
2019-06-20T15:02:59.522Z,2.27
2019-06-20T15:05:34.736Z,2.45
2019-06-20T15:08:06.041Z,2.35
2019-06-20T15:10:38.837Z,2.52
2019-06-20T15:13:10.801Z,2.27
2019-06-20T15:15:42.708Z,2.27
2019-06-20T15:18:14.650Z,1.90
2019-06-20T15:20:46.954Z,2.33
2019-06-20T15:23:20.293Z,2.52
2019-06-20T15:25:52.278Z,2.45
2019-06-20T15:28:24.217Z,2.35
2019-06-20T15:30:57.281Z,2.25
2019-06-20T15:33:29.374Z,2.20
2019-06-20T15:36:01.251Z,2.12
2019-06-20T15:38:33.178Z,3.15
2019-06-20T15:41:05.083Z,2.55
2019-06-20T15:43:36.987Z,2.25
2019-06-20T15:46:08.904Z,4.67
2019-06-20T15:48:40.957Z,3.80
2019-06-20T15:51:12.982Z,2.65
2019-06-20T15:53:44.897Z,2.55
2019-06-20T15:56:16.913Z,2.90
2019-06-20T15:58:48.932Z,2.60
2019-06-20T16:01:20.842Z,2.33
2019-06-20T16:03:52.765Z,2.27
2019-06-20T16:06:25.666Z,2.58
2019-06-20T16:08:57.581Z,2.70
2019-06-20T16:11:29.511Z,2.50
2019-06-20T16:14:01.425Z,2.58
2019-06-20T16:16:33.341Z,2.72
2019-06-20T16:19:05.252Z,3.67
2019-06-20T16:21:37.175Z,3.50
2019-06-20T16:24:12.458Z,3.40
2019-06-20T16:26:42.751Z,2.80
2019-06-20T16:29:14.704Z,2.80
2019-06-20T16:31:46.621Z,2.85
2019-06-20T16:34:18.557Z,2.85
2019-06-20T16:36:50.469Z,3.30
2019-06-20T16:39:22.456Z,3.37
2019-06-20T16:41:54.390Z,3.30
2019-06-20T16:44:26.294Z,3.22
2019-06-20T16:46:58.227Z,3.45
2019-06-20T16:49:30.381Z,3.27
2019-06-20T16:52:02.457Z,2.47
2019-06-20T16:54:34.408Z,2.90
2019-06-20T16:57:06.338Z,2.67
2019-06-20T16:59:38.268Z,2.60
2019-06-20T17:02:10.196Z,2.40
2019-06-20T17:04:42.085Z,2.52
2019-06-20T17:07:14.034Z,2.37
2019-06-20T17:09:45.924Z,2.87
2019-06-20T17:12:17.827Z,3.05
2019-06-20T17:14:49.748Z,3.20
2019-06-20T17:17:21.658Z,3.08
2019-06-20T17:19:53.586Z,3.42
2019-06-20T17:22:25.557Z,4.20
2019-06-20T17:24:57.494Z,4.70
2019-06-20T17:27:29.488Z,7.00
2019-06-20T17:30:01.870Z,8.10
2019-06-20T17:32:34.052Z,9.30
2019-06-20T17:35:07.682Z,8.53
2019-06-20T17:37:39.693Z,10.95
2019-06-20T17:40:12.223Z,10.15
2019-06-20T17:42:45.239Z,6.85
2019-06-20T17:45:17.366Z,6.60
2019-06-20T17:47:49.382Z,6.78
2019-06-20T17:50:21.399Z,6.22
2019-06-20T17:52:53.427Z,8.53
2019-06-20T17:55:25.453Z,7.85
2019-06-20T17:57:57.477Z,7.03
2019-06-20T18:00:29.413Z,11.28
2019-06-20T18:03:01.451Z,10.82
2019-06-20T18:05:33.495Z,12.37
2019-06-20T18:08:14.520Z,8.68
2019-06-20T18:10:39.250Z,13.32
2019-06-20T18:13:11.352Z,11.93
2019-06-20T18:15:43.366Z,7.03
2019-06-20T18:18:15.459Z,7.70
2019-06-20T18:20:47.482Z,8.35
2019-06-20T18:23:19.619Z,7.62
2019-06-20T18:25:51.687Z,8.73
2019-06-20T18:28:23.685Z,9.30
2019-06-20T18:30:55.702Z,9.05
2019-06-20T18:33:27.757Z,8.70
2019-06-20T18:35:59.789Z,9.68
2019-06-20T18:38:31.839Z,9.65
2019-06-20T18:41:03.908Z,10.13
2019-06-20T18:43:35.914Z,12.07
2019-06-20T18:46:07.942Z,11.33
2019-06-20T18:48:40.008Z,9.88
2019-06-20T18:51:13.189Z,9.88
2019-06-20T18:53:45.356Z,11.00
2019-06-20T18:56:17.386Z,10.15
2019-06-20T18:58:49.521Z,11.90
2019-06-20T19:01:21.577Z,11.78
2019-06-20T19:03:53.619Z,13.65
2019-06-20T19:06:35.610Z,13.53
2019-06-20T19:08:59.455Z,14.28
2019-06-20T19:11:33.105Z,15.28
2019-06-20T19:14:05.217Z,19.57
2019-06-20T19:16:37.185Z,20.27
2019-06-20T19:19:09.178Z,22.42
2019-06-20T19:21:41.228Z,25.27
2019-06-20T19:24:14.440Z,24.12
2019-06-20T19:26:46.458Z,24.43
2019-06-20T19:29:18.556Z,26.30
2019-06-20T19:31:50.606Z,26.10
2019-06-20T19:34:22.650Z,25.55
2019-06-20T19:36:54.789Z,26.57
2019-06-20T19:39:26.797Z,25.55
2019-06-20T19:41:58.854Z,27.50
2019-06-20T19:44:31.014Z,25.88
2019-06-20T19:47:03.060Z,25.27
2019-06-20T19:49:35.082Z,25.32
2019-06-20T19:52:07.089Z,25.02
2019-06-20T19:54:39.102Z,27.00
2019-06-20T19:57:11.121Z,26.77
2019-06-20T19:59:46.039Z,27.35
2019-06-20T20:02:16.873Z,29.02
2019-06-20T20:04:48.838Z,29.12
2019-06-20T20:07:20.963Z,29.55
2019-06-20T20:09:52.995Z,28.57
2019-06-20T20:12:25.036Z,28.70
2019-06-20T20:14:57.056Z,29.65
2019-06-20T20:17:29.111Z,29.77
2019-06-20T20:20:07.653Z,28.98
2019-06-20T20:22:39.638Z,28.07
2019-06-20T20:25:11.785Z,30.05
2019-06-20T20:27:43.831Z,28.62
2019-06-20T20:30:15.837Z,29.72
2019-06-20T20:32:47.956Z,29.27
2019-06-20T20:35:34.511Z,29.27
2019-06-20T20:37:54.820Z,27.55
2019-06-20T20:40:27.853Z,27.75
2019-06-20T20:42:59.901Z,26.73
2019-06-20T20:45:31.940Z,25.72
2019-06-20T20:48:04.215Z,26.00
2019-06-20T20:50:36.180Z,24.63
2019-06-20T20:53:08.232Z,24.60
2019-06-20T20:55:40.280Z,25.82
2019-06-20T20:58:12.320Z,24.37
2019-06-20T21:00:51.825Z,22.65
2019-06-20T21:03:23.959Z,23.30
2019-06-20T21:05:57.052Z,23.35
2019-06-20T21:08:32.842Z,24.67
2019-06-20T21:11:03.819Z,23.52
2019-06-20T21:13:35.809Z,22.02
2019-06-20T21:16:07.831Z,22.45
2019-06-20T21:18:39.863Z,21.82
2019-06-20T21:21:11.977Z,21.75
2019-06-20T21:23:43.988Z,21.17
2019-06-20T21:26:16.056Z,20.17
2019-06-20T21:28:48.084Z,19.15
2019-06-20T21:31:20.127Z,18.32
2019-06-20T21:33:54.482Z,18.00
2019-06-20T21:36:25.976Z,18.87
2019-06-20T21:38:58.129Z,18.32
2019-06-20T21:41:30.155Z,19.05
2019-06-20T21:44:02.185Z,19.32
2019-06-20T21:46:34.240Z,18.90
2019-06-20T21:49:06.279Z,19.15
2019-06-20T21:51:38.315Z,20.75
2019-06-20T21:54:10.373Z,20.02
2019-06-20T21:56:42.401Z,19.23
2019-06-20T21:59:15.330Z,18.80
2019-06-20T22:01:48.529Z,19.05
2019-06-20T22:04:21.861Z,18.95
2019-06-20T22:06:53.909Z,18.25
2019-06-20T22:09:25.940Z,18.67
2019-06-20T22:11:57.958Z,18.40
2019-06-20T22:14:32.432Z,18.52
2019-06-20T22:17:03.683Z,18.87
2019-06-20T22:19:35.833Z,18.25
2019-06-20T22:22:07.891Z,19.23
2019-06-20T22:24:39.942Z,17.23
2019-06-20T22:27:11.970Z,17.85
2019-06-20T22:29:43.979Z,16.95
2019-06-20T22:32:16.013Z,17.12
2019-06-20T22:34:48.044Z,16.23
2019-06-20T22:37:20.177Z,16.73
2019-06-20T22:39:52.336Z,17.25
2019-06-20T22:42:24.373Z,16.17
2019-06-20T22:44:56.415Z,16.15
2019-06-20T22:47:28.578Z,15.75
2019-06-20T22:50:00.598Z,14.70
2019-06-20T22:52:32.629Z,15.85
2019-06-20T22:55:05.771Z,15.65
2019-06-20T22:57:37.828Z,16.05
2019-06-20T23:00:09.882Z,15.48
2019-06-20T23:02:41.920Z,15.75
2019-06-20T23:05:14.057Z,14.68
2019-06-20T23:07:46.191Z,15.05
2019-06-20T23:10:18.228Z,15.20
2019-06-20T23:12:50.263Z,14.55
2019-06-20T23:15:22.360Z,14.15
2019-06-20T23:17:54.410Z,14.00
2019-06-20T23:20:26.416Z,13.50
2019-06-20T23:22:58.445Z,14.00
2019-06-20T23:25:30.607Z,14.38
2019-06-20T23:28:02.559Z,14.20
2019-06-20T23:30:34.551Z,13.55
2019-06-20T23:33:06.597Z,13.93
2019-06-20T23:35:38.626Z,14.70
2019-06-20T23:38:10.663Z,14.40
2019-06-20T23:40:42.897Z,12.68
2019-06-20T23:43:14.930Z,13.22
2019-06-20T23:45:47.018Z,13.80
2019-06-20T23:48:19.066Z,12.93
2019-06-20T23:50:51.095Z,13.00
2019-06-20T23:53:27.871Z,12.95
2019-06-20T23:55:59.884Z,12.58
2019-06-20T23:58:31.927Z,12.82
